Adco, Washington
Current Conditions -  °F | °C
As of 9:53 AM on Friday 24 Oct 2014 (Local Time) from KEPH Reporting Station
Clear Clear  
Wind Chill: 42°   Ceiling: Unl
Heat Index: 46°   Visibility: 10mi
Dew Point: 41°   Wind: 7mph
Humidity: 83%   Direction: 10°N
Pressure: 30.08"   Gusts: NA
Location:  47.4314°N, 119.485°W
Report Text: KEPH 241653Z AUTO 01006KT 10SM CLR 08/05 A3008 RMK AO2 SLP191 T00780050
Loading
Personal Weather Stations






























Interactive Weather Map
Tropical Storm Tracking
New forecast layout! Learn more

10-Day Weather Forecast

Advertisements
Track Severe Weather on mobile